Terminal Aerodrome Forecast
Issued by NWS

Home | Current Version | Previous Version | Text Only | Print | Product List | Glossary Off
Versions: 1 2 3 4 5 6 7 8 9 10 11 12 13 14 15 16 17 18 19 20 21

000
FTUS43 KBIS 251100 RRA
TAFDIK
TAF
KDIK 251142Z 2512/2612 16007KT P6SM BKN050
     FM251500 20010KT 3SM -SN OVC012
     FM251700 25013KT 1SM -SN OVC007
     FM252000 29018G24KT 5SM -SN OVC011
     FM260000 32022G30KT 4SM -SN BLSN OVC008
     FM260900 33010KT 6SM -SN BR OVC008=

USA.gov is the U.S. government's official web portal to all federal, state and local government web resources and services.